Time,TemperatureF,DewpointF,PressureIn,WindDirection,WindDirectionDegrees,WindSpeedMPH,WindSpeedGustMPH,Humidity,HourlyPrecipIn,Conditions,Clouds,dailyrainin,SoftwareType,DateUTC
2013-02-06 00:00:00,36.3,30.1,29.95,NW,322,0.0,0.0,78,0.00,CLR,,0.00,WeatherDisplay:10.37,2013-02-06 05:00:00,
2013-02-06 00:10:00,36.3,29.8,29.95,NNW,338,0.0,2.0,77,0.00,CLR,,0.00,WeatherDisplay:10.37,2013-02-06 05:10:00,
2013-02-06 00:20:00,36.3,29.8,29.93,NW,316,0.0,0.0,77,0.00,CLR,,0.00,WeatherDisplay:10.37,2013-02-06 05:20:00,
2013-02-06 00:30:00,36.1,29.6,29.93,WNW,292,0.0,0.0,77,0.00,CLR,,0.00,WeatherDisplay:10.37,2013-02-06 05:30:00,
2013-02-06 00:40:00,35.8,29.3,29.95,NNW,330,0.0,1.0,77,0.00,CLR,,0.00,WeatherDisplay:10.37,2013-02-06 05:40:00,
2013-02-06 01:00:00,35.6,29.4,29.95,WSW,249,1.0,3.0,78,0.00,CLR,,0.00,WeatherDisplay:10.37,2013-02-06 06:00:00,
2013-02-06 01:20:00,36.9,32.2,29.95,SSW,202,2.0,6.0,83,0.00,CLR,,0.00,WeatherDisplay:10.37,2013-02-06 06:20:00,
2013-02-06 01:30:00,37.5,33.1,29.95,SSW,201,2.0,5.0,84,0.00,CLR,,0.00,WeatherDisplay:10.37,2013-02-06 06:30:00,
2013-02-06 01:40:00,38.5,32.2,29.95,SSW,204,2.0,5.0,78,0.00,CLR,,0.00,WeatherDisplay:10.37,2013-02-06 06:40:00,
2013-02-06 01:50:00,39.2,30.6,29.95,SSW,202,2.0,6.0,71,0.00,CLR,,0.00,WeatherDisplay:10.37,2013-02-06 06:50:00,
2013-02-06 02:00:00,39.4,29.3,29.95,SW,222,3.0,6.0,67,0.00,CLR,,0.00,WeatherDisplay:10.37,2013-02-06 07:00:00,
2013-02-06 02:10:00,41.0,29.0,29.95,SW,219,5.0,8.0,62,0.00,CLR,,0.00,WeatherDisplay:10.37,2013-02-06 07:10:00,
2013-02-06 02:20:00,41.4,27.3,29.99,SW,215,5.0,8.0,57,0.00,CLR,,0.00,WeatherDisplay:10.37,2013-02-06 07:20:00,
2013-02-06 02:30:00,41.2,27.1,29.99,SSW,209,5.0,8.0,57,0.00,CLR,,0.00,WeatherDisplay:10.37,2013-02-06 07:30:00,
2013-02-06 02:40:00,41.2,26.2,29.99,SSW,206,3.0,9.0,55,0.00,CLR,,0.00,WeatherDisplay:10.37,2013-02-06 07:40:00,
2013-02-06 02:50:00,40.7,25.3,29.99,SW,218,2.0,9.0,54,0.00,CLR,,0.00,WeatherDisplay:10.37,2013-02-06 07:50:00,
2013-02-06 03:00:00,39.9,25.0,29.99,SW,223,2.0,5.0,55,0.00,CLR,,0.00,WeatherDisplay:10.37,2013-02-06 08:00:00,
2013-02-06 03:10:00,39.2,24.8,29.99,SW,214,2.0,3.0,56,0.00,CLR,,0.00,WeatherDisplay:10.37,2013-02-06 08:10:00,
2013-02-06 03:20:00,39.2,24.8,29.99,SSW,204,3.0,5.0,56,0.00,CLR,,0.00,WeatherDisplay:10.37,2013-02-06 08:20:00,
2013-02-06 03:30:00,38.7,24.3,29.99,SSW,208,2.0,5.0,56,0.00,CLR,,0.00,WeatherDisplay:10.37,2013-02-06 08:30:00,
2013-02-06 03:40:00,37.4,22.7,30.01,WSW,257,1.0,3.0,55,0.00,CLR,,0.00,WeatherDisplay:10.37,2013-02-06 08:40:00,
2013-02-06 03:50:00,36.7,23.3,29.99,WSW,243,2.0,6.0,58,0.00,CLR,,0.00,WeatherDisplay:10.37,2013-02-06 08:50:00,
2013-02-06 04:00:00,36.3,23.3,29.99,West,274,1.0,3.0,59,0.00,CLR,,0.00,WeatherDisplay:10.37,2013-02-06 09:00:00,
2013-02-06 04:10:00,35.9,23.3,29.99,West,280,0.0,5.0,60,0.00,CLR,,0.00,WeatherDisplay:10.37,2013-02-06 09:10:00,
2013-02-06 04:20:00,35.6,23.9,29.99,West,280,2.0,3.0,62,0.00,CLR,,0.00,WeatherDisplay:10.37,2013-02-06 09:20:00,
2013-02-06 04:30:00,35.4,23.7,29.99,West,269,2.0,5.0,62,0.00,CLR,,0.00,WeatherDisplay:10.37,2013-02-06 09:30:00,
2013-02-06 04:40:00,35.2,23.9,30.01,WNW,289,0.0,4.0,63,0.00,CLR,,0.00,WeatherDisplay:10.37,2013-02-06 09:40:00,
2013-02-06 04:50:00,34.7,23.4,30.01,WNW,292,0.0,2.0,63,0.00,CLR,,0.00,WeatherDisplay:10.37,2013-02-06 09:50:00,
2013-02-06 05:00:00,34.3,23.0,30.01,WNW,294,2.0,3.0,63,0.00,CLR,,0.00,WeatherDisplay:10.37,2013-02-06 10:00:00,
2013-02-06 05:10:00,34.2,23.6,30.01,WNW,286,1.0,4.0,65,0.00,CLR,,0.00,WeatherDisplay:10.37,2013-02-06 10:10:00,
2013-02-06 05:20:00,34.5,24.7,30.01,WNW,295,1.0,3.0,67,0.00,CLR,,0.00,WeatherDisplay:10.37,2013-02-06 10:20:00,
2013-02-06 05:30:00,34.3,24.5,30.01,WNW,283,2.0,3.0,67,0.00,CLR,,0.00,WeatherDisplay:10.37,2013-02-06 10:30:00,
2013-02-06 05:40:00,34.0,23.8,30.04,WNW,292,1.0,2.0,66,0.00,CLR,,0.00,WeatherDisplay:10.37,2013-02-06 10:40:00,
2013-02-06 05:50:00,33.4,23.3,30.04,WNW,288,0.0,2.0,66,0.00,CLR,,0.00,WeatherDisplay:10.37,2013-02-06 10:50:00,
2013-02-06 06:00:00,33.1,23.3,30.04,WNW,292,0.0,2.0,67,0.00,CLR,,0.00,WeatherDisplay:10.37,2013-02-06 11:00:00,
2013-02-06 06:10:00,32.5,22.8,30.04,West,271,0.0,0.0,67,0.00,CLR,,0.00,WeatherDisplay:10.37,2013-02-06 11:10:00,
2013-02-06 06:20:00,32.2,22.8,30.04,WSW,248,0.0,0.0,68,0.00,CLR,,0.00,WeatherDisplay:10.37,2013-02-06 11:20:00,
2013-02-06 06:30:00,31.8,23.1,30.04,SW,235,1.0,3.0,70,0.00,CLR,,0.00,WeatherDisplay:10.37,2013-02-06 11:30:00,
2013-02-06 06:40:00,31.5,23.5,30.04,SSW,204,1.0,2.0,72,0.00,CLR,,0.00,WeatherDisplay:10.37,2013-02-06 11:40:00,
2013-02-06 06:50:00,31.6,24.6,30.04,North,3,1.0,2.0,75,0.00,CLR,,0.00,WeatherDisplay:10.37,2013-02-06 11:50:00,
2013-02-06 07:00:00,32.2,26.7,30.04,NE,50,0.0,2.0,80,0.00,CLR,,0.00,WeatherDisplay:10.37,2013-02-06 12:00:00,
2013-02-06 07:10:00,31.5,25.4,30.04,West,279,0.0,2.0,78,0.00,CLR,,0.00,WeatherDisplay:10.37,2013-02-06 12:10:00,
2013-02-06 07:20:00,31.1,24.4,30.07,SW,225,0.0,1.0,76,0.00,CLR,,0.00,WeatherDisplay:10.37,2013-02-06 12:20:00,
2013-02-06 07:30:00,30.9,24.6,30.07,ENE,65,0.0,1.0,77,0.00,CLR,,0.00,WeatherDisplay:10.37,2013-02-06 12:30:00,
2013-02-06 07:40:00,30.7,24.4,30.07,ENE,68,0.0,0.0,77,0.00,CLR,,0.00,WeatherDisplay:10.37,2013-02-06 12:40:00,
2013-02-06 07:50:00,30.6,24.5,30.07,ENE,68,0.0,0.0,78,0.00,CLR,,0.00,WeatherDisplay:10.37,2013-02-06 12:50:00,
2013-02-06 08:00:00,31.1,25.7,30.07,ENE,68,0.0,0.0,80,0.00,CLR,,0.00,WeatherDisplay:10.37,2013-02-06 13:00:00,
2013-02-06 08:10:00,31.1,25.7,30.07,ENE,68,0.0,0.0,80,0.00,CLR,,0.00,WeatherDisplay:10.37,2013-02-06 13:10:00,
2013-02-06 08:20:00,31.1,25.7,30.07,ENE,68,0.0,0.0,80,0.00,CLR,,0.00,WeatherDisplay:10.37,2013-02-06 13:20:00,
2013-02-06 08:30:00,31.5,26.0,30.07,ENE,68,0.0,0.0,80,0.00,CLR,,0.00,WeatherDisplay:10.37,2013-02-06 13:30:00,
2013-02-06 08:40:00,31.9,26.7,30.10,East,98,2.0,3.0,81,0.00,CLR,,0.00,WeatherDisplay:10.37,2013-02-06 13:40:00,
2013-02-06 08:50:00,32.9,28.0,30.10,South,183,2.0,3.0,82,0.00,CLR,,0.00,WeatherDisplay:10.37,2013-02-06 13:50:00,
2013-02-06 09:00:00,34.3,30.8,30.10,South,189,3.0,6.0,87,0.00,CLR,,0.00,WeatherDisplay:10.37,2013-02-06 14:00:00,
2013-02-06 09:10:00,35.4,31.1,30.10,SSW,194,3.0,7.0,84,0.00,CLR,,0.00,WeatherDisplay:10.37,2013-02-06 14:10:00,
2013-02-06 09:20:00,36.2,30.0,30.10,SSW,195,2.0,6.0,78,0.00,CLR,,0.00,WeatherDisplay:10.37,2013-02-06 14:20:00,
2013-02-06 09:30:00,37.3,29.8,30.10,SSW,197,3.0,4.0,74,0.00,CLR,,0.00,WeatherDisplay:10.37,2013-02-06 14:30:00,
2013-02-06 09:40:00,38.5,29.2,30.10,SSW,195,2.0,5.0,69,0.00,CLR,,0.00,WeatherDisplay:10.37,2013-02-06 14:40:00,
2013-02-06 09:50:00,39.6,27.3,30.10,SSW,193,2.0,5.0,61,0.00,CLR,,0.00,WeatherDisplay:10.37,2013-02-06 14:50:00,
2013-02-06 10:00:00,40.3,25.8,30.10,South,171,3.0,5.0,56,0.00,CLR,,0.00,WeatherDisplay:10.37,2013-02-06 15:00:00,
2013-02-06 10:10:00,40.8,24.5,30.13,SSW,213,1.0,5.0,52,0.00,CLR,,0.00,WeatherDisplay:10.37,2013-02-06 15:10:00,
2013-02-06 10:20:00,41.2,23.9,30.13,SSW,194,3.0,6.0,50,0.00,CLR,,0.00,WeatherDisplay:10.37,2013-02-06 15:20:00,
2013-02-06 10:30:00,41.5,24.3,30.13,SSW,199,2.0,6.0,50,0.00,CLR,,0.00,WeatherDisplay:10.37,2013-02-06 15:30:00,
2013-02-06 10:40:00,41.5,23.8,30.13,SSW,198,3.0,6.0,49,0.00,CLR,,0.00,WeatherDisplay:10.37,2013-02-06 15:40:00,
2013-02-06 10:50:00,41.7,23.9,30.13,SSW,199,5.0,6.0,49,0.00,CLR,,0.00,WeatherDisplay:10.37,2013-02-06 15:50:00,
2013-02-06 11:00:00,42.1,24.3,30.13,SSW,196,2.0,9.0,49,0.00,CLR,,0.00,WeatherDisplay:10.37,2013-02-06 16:00:00,
2013-02-06 11:10:00,42.4,23.6,30.13,SSW,196,5.0,9.0,47,0.00,CLR,,0.00,WeatherDisplay:10.37,2013-02-06 16:10:00,
2013-02-06 11:20:00,42.6,23.8,30.13,South,185,5.0,8.0,47,0.00,CLR,,0.00,WeatherDisplay:10.37,2013-02-06 16:20:00,
2013-02-06 11:30:00,42.8,22.4,30.13,South,187,3.0,6.0,44,0.00,CLR,,0.00,WeatherDisplay:10.37,2013-02-06 16:30:00,
2013-02-06 11:40:00,43.0,22.0,30.13,South,191,5.0,8.0,43,0.00,CLR,,0.00,WeatherDisplay:10.37,2013-02-06 16:40:00,
2013-02-06 11:50:00,43.3,22.3,30.13,South,172,5.0,6.0,43,0.00,CLR,,0.00,WeatherDisplay:10.37,2013-02-06 16:50:00,
2013-02-06 12:00:00,43.8,22.2,30.13,SSW,193,3.0,8.0,42,0.00,CLR,,0.00,WeatherDisplay:10.37,2013-02-06 17:00:00,
2013-02-06 12:10:00,44.1,21.8,30.16,South,182,5.0,7.0,41,0.00,CLR,,0.00,WeatherDisplay:10.37,2013-02-06 17:10:00,
2013-02-06 12:20:00,44.8,21.9,30.16,South,185,6.0,9.0,40,0.00,CLR,,0.00,WeatherDisplay:10.37,2013-02-06 17:20:00,
2013-02-06 12:30:00,45.8,22.2,30.16,South,186,5.0,9.0,39,0.00,CLR,,0.00,WeatherDisplay:10.37,2013-02-06 17:30:00,
2013-02-06 12:40:00,46.1,20.6,30.16,SW,222,2.0,8.0,36,0.00,CLR,,0.00,WeatherDisplay:10.37,2013-02-06 17:40:00,
2013-02-06 12:50:00,47.3,22.3,30.16,SSW,198,3.0,10.0,37,0.00,CLR,,0.00,WeatherDisplay:10.37,2013-02-06 17:50:00,
2013-02-06 13:00:00,47.8,21.5,30.16,SSW,192,5.0,9.0,35,0.00,CLR,,0.00,WeatherDisplay:10.37,2013-02-06 18:00:00,
2013-02-06 13:10:00,48.4,20.6,30.16,SSW,198,2.0,9.0,33,0.00,CLR,,0.00,WeatherDisplay:10.37,2013-02-06 18:10:00,
2013-02-06 13:20:00,48.4,19.8,30.16,SSW,200,6.0,8.0,32,0.00,CLR,,0.00,WeatherDisplay:10.37,2013-02-06 18:20:00,
2013-02-06 13:30:00,49.2,20.5,30.16,SSW,192,1.0,8.0,32,0.00,CLR,,0.00,WeatherDisplay:10.37,2013-02-06 18:30:00,
2013-02-06 13:40:00,49.8,19.6,30.16,SSW,198,5.0,8.0,30,0.00,CLR,,0.00,WeatherDisplay:10.37,2013-02-06 18:40:00,
2013-02-06 13:50:00,49.8,17.1,30.19,SSW,212,5.0,14.0,27,0.00,CLR,,0.00,WeatherDisplay:10.37,2013-02-06 18:50:00,
2013-02-06 14:00:00,50.2,17.5,30.19,SW,216,2.0,7.0,27,0.00,CLR,,0.00,WeatherDisplay:10.37,2013-02-06 19:00:00,
2013-02-06 14:10:00,51.0,18.1,30.16,SSW,208,3.0,6.0,27,0.00,CLR,,0.00,WeatherDisplay:10.37,2013-02-06 19:10:00,
2013-02-06 14:20:00,51.1,17.3,30.19,SSW,196,3.0,9.0,26,0.00,CLR,,0.00,WeatherDisplay:10.37,2013-02-06 19:20:00,
2013-02-06 14:30:00,51.4,17.6,30.19,SSW,198,6.0,9.0,26,0.00,CLR,,0.00,WeatherDisplay:10.37,2013-02-06 19:30:00,
2013-02-06 14:40:00,52.0,18.1,30.19,South,185,2.0,12.0,26,0.00,CLR,,0.00,WeatherDisplay:10.37,2013-02-06 19:40:00,
2013-02-06 14:50:00,52.4,18.4,30.19,SSW,201,2.0,4.0,26,0.00,CLR,,0.00,WeatherDisplay:10.37,2013-02-06 19:50:00,
2013-02-06 15:00:00,52.4,18.5,30.19,SW,219,5.0,8.0,26,0.00,CLR,,0.00,WeatherDisplay:10.37,2013-02-06 20:00:00,
2013-02-06 15:10:00,52.7,15.9,30.19,SSW,195,5.0,10.0,23,0.00,CLR,,0.00,WeatherDisplay:10.37,2013-02-06 20:10:00,
2013-02-06 15:20:00,53.4,17.4,30.19,SSW,201,3.0,9.0,24,0.00,CLR,,0.00,WeatherDisplay:10.37,2013-02-06 20:20:00,
2013-02-06 15:30:00,54.4,19.2,30.19,SSW,207,2.0,6.0,25,0.00,CLR,,0.00,WeatherDisplay:10.37,2013-02-06 20:30:00,
2013-02-06 15:40:00,55.4,17.1,30.19,SW,217,3.0,6.0,22,0.00,CLR,,0.00,WeatherDisplay:10.37,2013-02-06 20:40:00,
2013-02-06 15:50:00,55.4,17.1,30.19,SSW,195,6.0,9.0,22,0.00,CLR,,0.00,WeatherDisplay:10.37,2013-02-06 20:50:00,
2013-02-06 16:00:00,54.7,17.6,30.19,SSW,202,3.0,8.0,23,0.00,CLR,,0.00,WeatherDisplay:10.37,2013-02-06 21:00:00,
2013-02-06 16:10:00,54.6,17.5,30.19,SSW,202,3.0,8.0,23,0.00,CLR,,0.00,WeatherDisplay:10.37,2013-02-06 21:10:00,
2013-02-06 16:20:00,54.5,14.2,30.19,SSW,200,5.0,10.0,20,0.00,CLR,,0.00,WeatherDisplay:10.37,2013-02-06 21:20:00,
2013-02-06 16:30:00,53.8,13.6,30.19,SSW,197,5.0,8.0,20,0.00,CLR,,0.00,WeatherDisplay:10.37,2013-02-06 21:30:00,
2013-02-06 16:40:00,54.0,16.9,30.22,SSW,193,3.0,10.0,23,0.00,CLR,,0.00,WeatherDisplay:10.37,2013-02-06 21:40:00,
2013-02-06 16:50:00,53.6,13.4,30.19,SSW,204,2.0,7.0,20,0.00,CLR,,0.00,WeatherDisplay:10.37,2013-02-06 21:50:00,
2013-02-06 17:00:00,53.4,14.4,30.19,SSW,208,3.0,6.0,21,0.00,CLR,,0.00,WeatherDisplay:10.37,2013-02-06 22:00:00,
2013-02-06 17:10:00,52.9,13.9,30.19,SSW,200,2.0,7.0,21,0.00,CLR,,0.00,WeatherDisplay:10.37,2013-02-06 22:10:00,
2013-02-06 17:20:00,52.1,13.3,30.19,SSW,196,2.0,7.0,21,0.00,CLR,,0.00,WeatherDisplay:10.37,2013-02-06 22:20:00,
2013-02-06 17:30:00,51.4,12.7,30.19,SW,222,2.0,6.0,21,0.00,CLR,,0.00,WeatherDisplay:10.37,2013-02-06 22:30:00,
2013-02-06 17:40:00,50.5,12.0,30.19,SW,215,2.0,5.0,21,0.00,CLR,,0.00,WeatherDisplay:10.37,2013-02-06 22:40:00,
2013-02-06 17:50:00,48.6,13.4,30.16,WSW,243,1.0,6.0,24,0.00,CLR,,0.00,WeatherDisplay:10.37,2013-02-06 22:50:00,
2013-02-06 18:00:00,46.8,11.8,30.16,West,267,0.0,3.0,24,0.00,CLR,,0.00,WeatherDisplay:10.37,2013-02-06 23:00:00,
2013-02-06 18:10:00,45.3,13.2,30.16,NNW,342,0.0,2.0,27,0.00,CLR,,0.00,WeatherDisplay:10.37,2013-02-06 23:10:00,
2013-02-06 18:20:00,43.7,12.7,30.13,NNW,345,0.0,0.0,28,0.00,CLR,,0.00,WeatherDisplay:10.37,2013-02-06 23:20:00,
2013-02-06 18:30:00,42.6,12.5,30.13,NNW,338,0.0,0.0,29,0.00,CLR,,0.00,WeatherDisplay:10.37,2013-02-06 23:30:00,
2013-02-06 18:40:00,41.7,11.7,30.13,NW,312,0.0,0.0,29,0.00,CLR,,0.00,WeatherDisplay:10.37,2013-02-06 23:40:00,
2013-02-06 18:50:00,42.2,12.9,30.16,NE,34,1.0,2.0,30,0.00,CLR,,0.00,WeatherDisplay:10.37,2013-02-06 23:50:00,
2013-02-06 19:00:00,42.3,13.7,30.16,NE,55,1.0,2.0,31,0.00,CLR,,0.00,WeatherDisplay:10.37,2013-02-07 00:00:00,
2013-02-06 19:10:00,41.0,13.3,30.13,NNE,30,1.0,2.0,32,0.00,CLR,,0.00,WeatherDisplay:10.37,2013-02-07 00:10:00,
2013-02-06 19:20:00,39.7,14.9,30.16,NNE,27,0.0,2.0,36,0.00,CLR,,0.00,WeatherDisplay:10.37,2013-02-07 00:20:00,
2013-02-06 19:30:00,39.0,14.3,30.16,NNE,12,0.0,2.0,36,0.00,CLR,,0.00,WeatherDisplay:10.37,2013-02-07 00:30:00,
2013-02-06 19:40:00,39.7,14.3,30.13,NNE,21,1.0,2.0,35,0.00,CLR,,0.00,WeatherDisplay:10.37,2013-02-07 00:40:00,
2013-02-06 19:50:00,39.3,15.2,30.16,NNE,32,1.0,2.0,37,0.00,CLR,,0.00,WeatherDisplay:10.37,2013-02-07 00:50:00,
2013-02-06 20:00:00,38.7,14.6,30.16,NNW,338,0.0,2.0,37,0.00,CLR,,0.00,WeatherDisplay:10.37,2013-02-07 01:00:00,
2013-02-06 20:10:00,38.3,15.5,30.16,North,353,1.0,2.0,39,0.00,CLR,,0.00,WeatherDisplay:10.37,2013-02-07 01:10:00,
2013-02-06 20:20:00,38.8,15.4,30.13,NE,35,2.0,2.0,38,0.00,CLR,,0.00,WeatherDisplay:10.37,2013-02-07 01:20:00,
2013-02-06 20:30:00,38.3,14.9,30.13,NE,36,0.0,2.0,38,0.00,CLR,,0.00,WeatherDisplay:10.37,2013-02-07 01:30:00,
2013-02-06 20:40:00,38.1,14.7,30.13,NE,51,0.0,2.0,38,0.00,CLR,,0.00,WeatherDisplay:10.37,2013-02-07 01:40:00,
2013-02-06 20:50:00,37.0,14.9,30.16,NNW,331,1.0,2.0,40,0.00,CLR,,0.00,WeatherDisplay:10.37,2013-02-07 01:50:00,
2013-02-06 21:00:00,37.9,15.1,30.16,NE,46,2.0,2.0,39,0.00,CLR,,0.00,WeatherDisplay:10.37,2013-02-07 02:00:00,
2013-02-06 21:10:00,37.6,14.8,30.13,NE,54,2.0,2.0,39,0.00,CLR,,0.00,WeatherDisplay:10.37,2013-02-07 02:10:00,
2013-02-06 21:20:00,37.0,14.9,30.13,NW,316,0.0,2.0,40,0.00,CLR,,0.00,WeatherDisplay:10.37,2013-02-07 02:20:00,
2013-02-06 21:30:00,38.1,15.3,30.13,NE,52,2.0,2.0,39,0.00,CLR,,0.00,WeatherDisplay:10.37,2013-02-07 02:30:00,
2013-02-06 21:40:00,37.6,14.8,30.13,NNE,32,1.0,2.0,39,0.00,CLR,,0.00,WeatherDisplay:10.37,2013-02-07 02:40:00,
2013-02-06 21:50:00,37.9,15.1,30.13,ENE,66,3.0,3.0,39,0.00,CLR,,0.00,WeatherDisplay:10.37,2013-02-07 02:50:00,
2013-02-06 22:00:00,37.6,14.8,30.13,NE,44,1.0,3.0,39,0.00,CLR,,0.00,WeatherDisplay:10.37,2013-02-07 03:00:00,
2013-02-06 22:10:00,36.5,14.4,30.16,NNE,22,0.0,2.0,40,0.00,CLR,,0.00,WeatherDisplay:10.37,2013-02-07 03:10:00,
2013-02-06 22:20:00,36.7,14.6,30.16,NNW,338,0.0,0.0,40,0.00,CLR,,0.00,WeatherDisplay:10.37,2013-02-07 03:20:00,
2013-02-06 22:30:00,37.0,14.9,30.16,North,2,0.0,2.0,40,0.00,CLR,,0.00,WeatherDisplay:10.37,2013-02-07 03:30:00,
2013-02-06 22:40:00,37.2,15.1,30.16,NE,55,0.0,2.0,40,0.00,CLR,,0.00,WeatherDisplay:10.37,2013-02-07 03:40:00,
2013-02-06 22:50:00,36.9,15.4,30.16,NNE,19,2.0,3.0,41,0.00,CLR,,0.00,WeatherDisplay:10.37,2013-02-07 03:50:00,
2013-02-06 23:00:00,37.6,15.4,30.16,ENE,59,2.0,3.0,40,0.00,CLR,,0.00,WeatherDisplay:10.37,2013-02-07 04:00:00,
2013-02-06 23:10:00,37.9,15.7,30.16,ENE,62,2.0,3.0,40,0.00,CLR,,0.00,WeatherDisplay:10.37,2013-02-07 04:10:00,
2013-02-06 23:20:00,38.1,15.3,30.13,NE,48,2.0,3.0,39,0.00,CLR,,0.00,WeatherDisplay:10.37,2013-02-07 04:20:00,
2013-02-06 23:30:00,38.3,16.1,30.13,NE,36,2.0,4.0,40,0.00,CLR,,0.00,WeatherDisplay:10.37,2013-02-07 04:30:00,
2013-02-06 23:40:00,38.5,16.2,30.13,NE,47,2.0,4.0,40,0.00,CLR,,0.00,WeatherDisplay:10.37,2013-02-07 04:40:00,
2013-02-06 23:50:00,38.1,15.9,30.13,NE,51,2.0,4.0,40,0.00,CLR,,0.00,WeatherDisplay:10.37,2013-02-07 04:50:00,